Date,TemperatureHighF,TemperatureAvgF,TemperatureLowF,DewpointHighF,DewpointAvgF,DewpointLowF,HumidityHigh,HumidityAvg,HumidityLow,PressureMaxIn,PressureMinIn,WindSpeedMaxMPH,WindSpeedAvgMPH,GustSpeedMaxMPH,PrecipitationSumIn
2019-1-1,59.3,45.9,32.6,30.4,22.4,15.0,58,43,27,30.52,30.46,7,1,7,0.00
2019-1-2,62.7,49.9,37.1,32.7,19.8,7.7,51,35,21,30.49,30.33,9,1,9,0.00
2019-1-3,54.4,43.2,32.0,29.6,22.3,14.4,70,49,29,30.46,30.37,9,1,9,0.00
2019-1-4,58.6,44.2,30.0,28.4,23.4,18.1,75,51,23,30.54,30.43,8,1,8,0.00
2019-1-5,67.1,49.6,32.2,33.9,17.4,6.6,50,35,13,30.59,30.51,5,1,5,0.00
2019-1-6,62.9,51.0,39.2,18.5,8.3,-0.6,27,18,12,30.55,30.41,10,2,10,0.00
2019-1-7,62.2,50.8,39.4,20.6,9.4,-5.0,42,20,10,30.43,30.35,12,2,5,0.00
2019-1-8,62.1,47.7,33.3,32.3,19.6,11.9,62,36,18,30.47,30.35,12,1,12,0.00
2019-1-9,52.9,43.5,34.0,37.8,32.8,26.0,79,65,51,30.36,30.12,17,4,17,0.00
2019-1-10,47.3,38.0,28.7,27.8,24.3,16.9,78,64,41,30.30,30.12,17,2,17,0.00
2019-1-11,50.5,39.2,27.9,26.1,20.3,9.8,67,51,38,30.45,30.30,10,2,10,0.00
2019-1-12,52.7,40.6,28.5,31.4,27.1,22.5,82,64,42,30.49,30.42,10,2,10,0.00
2019-1-13,63.2,46.1,29.0,32.6,26.3,18.4,78,55,30,30.48,30.35,9,1,9,0.00
2019-1-14,63.1,51.3,39.6,34.1,28.0,14.9,69,45,25,30.36,30.17,8,2,8,0.00
2019-1-15,56.8,44.7,32.5,31.3,24.2,14.7,70,49,29,30.21,30.12,8,1,8,0.00
2019-1-16,52.0,40.7,29.4,36.2,30.3,24.4,87,71,50,30.18,30.06,8,1,8,0.00
2019-1-17,46.1,37.8,29.6,34.9,30.6,25.8,93,80,58,30.24,30.09,8,1,8,0.00
2019-1-18,45.3,37.2,29.1,30.6,26.3,22.1,83,69,49,30.24,30.11,7,1,7,0.00
2019-1-19,39.2,32.9,26.6,33.2,28.7,24.0,96,90,77,30.15,29.91,7,0,7,0.01
2019-1-20,44.1,38.1,32.2,39.9,33.7,31.1,97,89,72,30.18,29.87,13,2,13,0.45
2019-1-21,45.0,38.7,32.6,33.2,30.1,25.6,88,76,56,30.25,30.17,17,3,17,0.00
2019-1-22,40.0,35.9,31.9,34.3,30.2,25.4,90,77,67,30.23,29.95,18,4,18,0.05
2019-1-23,50.4,44.3,38.3,40.2,36.6,32.9,83,75,65,29.95,29.72,37,14,37,0.01
2019-1-24,49.9,46.6,43.2,41.9,39.5,36.5,83,78,71,30.03,29.74,37,9,37,0.00
2019-1-25,54.7,47.4,40.2,39.5,36.7,30.2,81,70,47,30.20,29.99,32,5,32,0.00
2019-1-26,61.1,47.2,33.4,40.6,30.5,19.3,76,57,35,30.20,30.02,26,1,26,0.00
2019-1-27,50.2,44.5,39.0,34.9,30.2,26.3,81,59,42,30.09,29.91,25,7,25,0.00
2019-1-28,49.8,43.2,36.5,35.5,31.2,24.2,82,65,52,30.11,29.98,31,9,31,0.00
2019-1-29,46.3,39.5,32.8,39.8,32.8,26.4,89,73,60,30.10,29.85,24,8,14,0.15
2019-1-30,46.3,39.8,33.5,35.8,29.5,21.0,94,71,38,29.97,29.73,30,4,30,0.27
2019-1-31,55.2,46.2,37.4,46.7,42.8,35.8,97,85,67,29.73,29.40,29,11,29,0.13
2019-2-1,45.9,39.7,33.6,43.9,34.1,28.2,97,82,54,29.48,29.24,29,11,29,0.29
2019-2-2,41.1,36.5,32.1,30.6,26.6,23.8,84,73,58,30.18,29.46,28,10,28,0.02
2019-2-3,42.4,36.3,30.2,27.2,23.9,15.9,78,66,52,30.49,30.17,28,6,28,0.00
2019-2-4,59.0,43.8,28.6,33.2,22.6,16.0,75,51,24,30.52,30.42,24,1,24,0.00
2019-2-5,64.3,51.4,38.4,41.8,36.2,28.2,82,65,41,30.48,30.36,12,1,12,0.00
2019-2-6,60.7,47.6,34.6,44.0,36.5,28.7,85,69,50,30.40,30.24,8,1,8,0.00
2019-2-7,61.2,49.3,37.6,38.6,33.0,24.0,77,60,32,30.27,30.19,12,2,12,0.00
2019-2-8,57.3,44.8,32.4,41.2,33.5,25.3,82,68,53,30.27,30.17,12,2,12,0.00
2019-2-9,52.9,43.9,34.9,40.0,36.0,30.8,88,74,59,30.26,30.17,12,2,12,0.00
2019-2-10,52.9,43.5,34.3,44.8,38.4,31.8,95,77,65,30.26,30.17,18,3,18,0.00
2019-2-11,58.0,45.8,33.7,36.9,29.5,23.3,85,59,30,30.48,30.26,18,2,18,0.00
2019-2-12,55.7,42.6,29.6,31.5,27.6,21.9,83,61,35,30.53,30.46,10,2,10,0.00
2019-2-13,59.1,45.5,32.0,34.9,29.7,25.7,80,54,29,30.52,30.43,10,1,10,0.00
2019-2-14,58.1,45.6,33.3,31.6,25.7,20.0,75,52,26,30.52,30.42,9,2,8,0.00
2019-2-15,62.9,47.0,31.3,36.3,30.0,24.2,79,57,32,30.46,30.32,9,1,9,0.00
2019-2-16,58.8,46.6,34.4,38.4,29.7,25.3,85,57,29,30.39,30.28,10,2,10,0.00
2019-2-17,56.1,43.9,31.8,30.0,24.0,17.6,74,50,24,30.35,30.16,12,2,12,0.00
2019-2-18,56.4,43.8,31.2,37.2,30.8,23.5,87,64,41,30.20,30.10,12,1,12,0.00
2019-2-19,56.4,46.0,35.7,39.7,34.5,30.0,82,68,48,30.19,30.11,10,2,10,0.00
2019-2-20,56.3,44.9,33.5,40.6,35.2,30.0,90,73,53,30.35,30.19,13,2,13,0.00
2019-2-21,59.6,46.8,33.9,40.1,33.1,27.7,89,64,32,30.52,30.35,13,2,13,0.00
2019-2-22,64.7,49.6,34.7,34.2,27.4,22.1,72,47,21,30.54,30.44,13,1,13,0.00
2019-2-23,69.2,53.6,38.1,32.3,26.4,20.3,57,38,22,30.48,30.35,13,1,13,0.00
2019-2-24,66.5,52.6,38.8,36.7,30.2,21.9,65,45,31,30.50,30.38,12,2,12,0.00
2019-2-25,67.8,52.1,36.5,41.3,35.6,29.6,78,57,37,30.51,30.39,12,2,12,0.00
2019-2-26,64.8,51.2,37.8,40.2,34.1,26.1,84,56,29,30.45,30.38,12,2,12,0.00
2019-2-27,67.2,52.7,38.3,34.1,27.4,22.5,59,41,19,30.45,30.34,12,2,12,0.00
2019-2-28,70.7,57.8,44.9,34.7,31.1,27.4,59,44,25,30.39,30.30,12,1,12,0.00
2019-3-1,70.1,53.7,37.3,36.4,31.5,25.6,67,47,25,30.33,30.18,10,1,10,0.00
2019-3-2,71.0,56.5,42.4,40.1,32.0,17.1,73,45,16,30.30,30.22,10,1,10,0.00
2019-3-3,66.3,52.3,38.5,39.5,29.4,18.8,57,43,30,30.27,30.09,17,4,17,0.00
2019-3-4,58.8,50.5,42.5,42.8,35.1,16.3,85,58,31,30.11,30.03,18,5,18,0.00
2019-3-5,56.9,47.8,39.1,43.2,38.2,33.7,88,70,52,30.08,29.92,20,4,20,0.02
2019-3-6,49.0,44.4,39.8,46.6,41.2,34.0,98,88,68,29.91,29.56,25,10,14,0.66
2019-3-7,51.4,43.5,35.7,35.7,32.2,26.9,86,68,49,30.09,29.87,32,7,32,0.00
2019-3-8,60.0,47.8,35.8,40.7,35.8,31.0,91,68,38,30.42,30.08,8,1,8,0.00
2019-3-9,65.8,50.8,35.9,44.9,37.7,29.9,81,63,46,30.52,30.41,9,1,9,0.00
2019-3-10,73.2,57.6,42.0,47.4,41.2,35.7,82,59,30,30.50,30.34,12,2,12,0.00
2019-3-11,70.1,57.3,44.5,45.7,40.2,32.3,81,57,31,30.40,30.32,12,1,12,0.00
2019-3-12,68.6,52.8,37.1,42.9,35.0,27.9,72,54,25,30.40,30.20,14,2,14,0.00
2019-3-13,53.8,46.4,39.1,40.7,32.0,27.9,79,58,40,30.45,30.19,15,4,15,0.00
2019-3-14,67.3,51.4,35.6,32.2,27.4,19.9,72,47,19,30.47,30.36,15,2,15,0.00
2019-3-15,74.0,56.4,39.0,37.0,28.0,19.1,49,35,21,30.43,30.25,10,1,10,0.00
2019-3-16,71.9,57.0,42.2,38.4,31.7,26.3,62,40,22,30.29,30.03,14,3,14,0.00
2019-3-17,64.0,53.8,43.7,40.1,33.0,24.3,69,47,30,30.12,29.97,20,5,20,0.00
2019-3-18,61.7,47.8,34.0,33.5,28.0,23.9,75,52,27,30.32,30.12,20,2,20,0.00
2019-3-19,58.8,48.2,37.8,37.1,31.3,27.2,73,57,39,30.37,30.26,10,3,10,0.00
2019-3-20,59.0,46.3,33.6,29.8,26.6,23.3,76,51,28,30.39,30.30,10,2,10,0.00
2019-3-21,58.5,45.2,32.1,31.4,25.7,22.1,69,48,31,30.41,30.28,13,2,13,0.00
2019-3-22,64.7,48.5,32.3,31.1,27.2,23.2,71,46,23,30.40,30.27,13,2,13,0.00
2019-3-23,66.2,53.2,40.4,38.1,33.3,29.7,71,50,27,30.38,30.20,12,2,12,0.00
2019-3-24,68.2,54.3,40.5,39.6,30.6,21.4,75,45,20,30.28,30.15,12,2,12,0.00
2019-3-25,71.8,55.8,40.0,35.1,29.8,21.0,66,41,18,30.23,30.04,12,1,12,0.00
2019-3-26,66.9,50.4,34.2,29.9,22.4,11.6,61,36,12,30.19,30.07,16,3,16,0.00
2019-3-27,65.9,50.1,34.3,26.8,20.7,13.3,50,33,20,30.30,30.19,16,2,16,0.00
2019-3-28,64.2,49.6,35.1,27.9,22.6,19.2,54,36,20,30.36,30.23,12,2,12,0.00
2019-3-29,61.0,48.2,35.5,32.6,26.0,22.2,61,43,25,30.32,30.17,12,2,12,0.00
2019-3-30,64.2,49.5,34.8,34.8,30.4,26.6,81,51,26,30.24,30.01,12,2,12,0.00
2019-3-31,57.0,47.8,38.6,44.7,37.2,27.8,92,71,47,30.06,29.91,12,2,12,0.04
2019-4-1,59.0,50.5,42.0,45.5,42.0,40.4,96,80,54,30.01,29.94,6,1,3,0.01
2019-4-2,58.0,49.3,40.8,46.5,40.3,29.5,89,72,42,30.02,29.89,12,2,12,0.09
2019-4-3,53.2,46.1,38.9,36.9,30.1,20.2,70,53,30,29.91,29.64,20,6,10,0.00
2019-4-4,54.0,41.8,29.7,26.1,22.7,18.7,75,49,28,29.74,29.57,23,4,23,0.00
2019-4-5,44.4,38.5,32.8,40.0,33.7,23.7,97,87,46,29.63,29.49,15,3,15,0.35
2019-4-6,44.7,39.5,34.2,36.0,32.0,28.0,90,79,64,29.75,29.61,21,5,21,0.11
2019-4-7,51.3,42.4,33.6,38.1,32.6,27.2,93,73,42,30.00,29.75,21,3,21,0.24
2019-4-8,57.6,47.8,38.1,47.5,38.4,31.0,97,78,47,30.00,29.88,17,3,17,0.15
2019-4-9,50.1,43.5,37.0,41.3,35.8,32.8,91,78,55,29.98,29.88,17,3,17,0.06
2019-4-10,53.2,45.4,37.6,43.7,37.1,32.8,90,78,57,30.10,29.94,17,3,17,0.14
2019-4-11,57.3,46.2,35.0,37.7,34.5,31.3,88,63,43,30.16,30.09,15,2,15,0.00
2019-4-12,64.4,49.5,34.7,37.0,32.7,28.7,83,56,29,30.16,30.06,14,2,14,0.00
2019-4-13,68.6,53.7,38.8,30.6,24.2,13.8,55,33,15,30.13,30.04,12,3,12,0.00
2019-4-14,73.4,62.2,50.9,50.4,44.2,26.2,77,58,32,30.08,29.93,12,2,12,0.00
2019-4-15,69.0,58.5,48.1,53.0,45.7,38.0,87,71,40,29.99,29.79,20,4,20,0.00
2019-4-16,65.3,53.0,40.9,42.0,38.2,34.9,81,58,36,30.09,29.98,20,3,20,0.00
2019-4-17,68.7,58.4,48.3,51.1,44.4,36.6,93,67,40,30.01,29.76,20,4,20,0.06
2019-4-18,52.8,48.4,44.0,50.0,45.5,42.9,99,97,89,29.96,29.85,20,2,20,0.76
2019-4-19,51.5,47.3,43.1,47.7,44.2,40.4,99,92,69,30.19,29.95,20,2,20,0.28
2019-4-20,66.2,56.8,47.6,41.7,38.8,34.0,72,55,36,30.21,30.00,16,4,16,0.01
2019-4-21,56.0,49.4,42.9,42.8,39.3,37.1,81,72,58,30.07,29.82,16,1,16,0.00
2019-4-22,62.1,53.5,45.0,48.9,42.3,39.0,93,75,48,29.82,29.49,16,1,16,0.10
2019-4-23,52.1,44.5,36.9,45.6,41.1,32.1,94,84,48,29.53,29.38,24,5,24,0.19